Time;durP1;ratioP1;P1;durP2;ratioP2;P2;SDS_P1;SDS_P2;PMS_P1;PMS_P2;Temp;Humidity;BMP_temperature;BMP_pressure;BME280_temperature;BME280_humidity;BME280_pressure;Samples;Min_cycle;Max_cycle;Signal;HPM_P1;HPM_P2
2024/01/13 06:55:50;;;;;;;;;;;;;;;;;;10715728;22;20047;-86
2024/01/13 07:00:51;;;;;;;7.95;4.90;;;;;;;;;;10606922;28;19912;-87
2024/01/13 07:05:52;;;;;;;10.00;7.18;;;;;;;;;;10611074;28;20031;-86
2024/01/13 07:10:58;;;;;;;7.32;5.88;;;;;;;;;;10619536;27;20027;-82
2024/01/13 07:16:00;;;;;;;10.18;7.82;;;;;;;;;;10648603;28;20031;-88
2024/01/13 07:21:07;;;;;;;10.13;7.45;;;;;;;;;;10628952;28;20035;-86
2024/01/13 07:26:08;;;;;;;10.93;8.52;;;;;;;;;;10610361;28;20027;-86
2024/01/13 07:31:10;;;;;;;10.13;7.43;;;;;;;;;;10620910;28;20031;-86
2024/01/13 07:36:11;;;;;;;9.70;7.97;;;;;;;;;;10623739;27;20122;-84
2024/01/13 07:41:12;;;;;;;8.30;5.93;;;;;;;;;;10651162;27;20018;-86
2024/01/13 07:46:14;;;;;;;9.00;6.53;;;;;;;;;;10611838;28;20031;-85
2024/01/13 07:51:15;;;;;;;8.77;6.78;;;;;;;;;;10600792;28;20023;-85
2024/01/13 07:56:16;;;;;;;11.95;8.45;;;;;;;;;;10579288;28;20036;-87
2024/01/13 08:01:18;;;;;;;;;;;;;;;;;;10577590;28;20055;-86
2024/01/13 08:06:19;;;;;;;7.38;5.30;;;;;;;;;;10579291;28;19904;-83
2024/01/13 08:11:21;;;;;;;10.68;6.70;;;;;;;;;;10574149;28;20043;-84
2024/01/13 08:16:23;;;;;;;8.48;6.88;;;;;;;;;;10573579;28;20082;-82
2024/01/13 08:21:24;;;;;;;7.85;5.75;;;;;;;;;;10577964;28;20495;-83
2024/01/13 08:26:26;;;;;;;;;;;;;;;;;;10582245;28;20054;-83
2024/01/13 08:31:27;;;;;;;10.15;8.68;;;;;;;;;;10581029;28;19923;-83
2024/01/13 08:36:28;;;;;;;;;;;;;;;;;;10580181;28;20024;-82
2024/01/13 08:41:31;;;;;;;8.45;6.82;;;;;;;;;;10578529;28;19903;-83
2024/01/13 08:46:32;;;;;;;10.90;8.40;;;;;;;;;;10578632;28;20099;-84
2024/01/13 08:51:33;;;;;;;;;;;;;;;;;;10581601;28;20027;-83
2024/01/13 08:56:34;;;;;;;7.38;6.18;;;;;;;;;;10582898;28;19911;-84
2024/01/13 09:01:37;;;;;;;7.72;5.95;;;;;;;;;;10601360;28;20051;-81
2024/01/13 09:06:38;;;;;;;6.65;5.07;;;;;;;;;;10599162;28;20032;-83
2024/01/13 09:11:41;;;;;;;10.30;6.38;;;;;;;;;;10578113;28;20020;-83
2024/01/13 09:16:42;;;;;;;9.88;6.07;;;;;;;;;;10577088;28;20043;-82
2024/01/13 09:21:43;;;;;;;5.60;4.60;;;;;;;;;;10576762;28;20437;-82
2024/01/13 09:26:44;;;;;;;;;;;;;;;;;;10576939;28;20020;-81
2024/01/13 09:31:45;;;;;;;17.33;15.00;;;;;;;;;;10593010;28;19903;-81
2024/01/13 09:36:46;;;;;;;11.90;10.02;;;;;;;;;;10591953;28;20024;-83
2024/01/13 09:41:48;;;;;;;9.20;7.10;;;;;;;;;;10574393;28;20043;-82
2024/01/13 09:46:51;;;;;;;7.63;5.72;;;;;;;;;;10568955;28;20026;-81
2024/01/13 09:51:53;;;;;;;8.23;6.65;;;;;;;;;;10567219;28;20111;-80
2024/01/13 09:56:56;;;;;;;15.13;11.23;;;;;;;;;;10567267;28;20035;-82
2024/01/13 10:01:57;;;;;;;10.68;9.00;;;;;;;;;;10570946;28;20027;-81
2024/01/13 10:06:58;;;;;;;;;;;;;;;;;;10573683;28;20027;-81
2024/01/13 10:12:00;;;;;;;8.82;5.95;;;;;;;;;;10577303;28;19903;-82
2024/01/13 10:17:06;;;;;;;7.22;5.32;;;;;;;;;;10586036;28;20036;-82
2024/01/13 10:22:07;;;;;;;7.55;6.07;;;;;;;;;;10581706;28;20122;-81
2024/01/13 10:27:08;;;;;;;9.43;6.97;;;;;;;;;;10570786;28;20539;-81
2024/01/13 10:32:10;;;;;;;;;;;;;;;;;;10569372;28;20490;-81
2024/01/13 10:37:13;;;;;;;8.43;6.82;;;;;;;;;;10587119;28;19910;-81
2024/01/13 10:42:20;;;;;;;9.75;8.00;;;;;;;;;;10587337;28;20107;-83
2024/01/13 10:47:21;;;;;;;6.57;5.63;;;;;;;;;;10589506;28;20478;-83
2024/01/13 10:52:27;;;;;;;7.80;6.63;;;;;;;;;;10569851;28;20047;-82
2024/01/13 10:57:32;;;;;;;8.05;6.95;;;;;;;;;;10571914;28;20031;-84
2024/01/13 11:02:34;;;;;;;8.32;7.00;;;;;;;;;;10574995;28;20027;-84
2024/01/13 11:07:40;;;;;;;9.48;6.40;;;;;;;;;;10573000;28;20048;-84
2024/01/13 11:12:49;;;;;;;9.77;7.93;;;;;;;;;;10556115;28;20471;-84
2024/01/13 11:17:51;;;;;;;10.45;8.05;;;;;;;;;;10574737;28;20047;-82
2024/01/13 11:22:57;;;;;;;9.88;7.80;;;;;;;;;;10571542;28;20062;-79
2024/01/13 11:27:59;;;;;;;8.00;6.68;;;;;;;;;;10575823;28;20024;-81
2024/01/13 11:33:00;;;;;;;7.20;5.70;;;;;;;;;;10598073;28;20024;-82
2024/01/13 11:38:02;;;;;;;9.75;7.90;;;;;;;;;;10599001;28;20139;-82
2024/01/13 11:43:08;;;;;;;7.90;6.38;;;;;;;;;;10596962;28;20020;-80
2024/01/13 11:48:33;;;;;;;6.50;5.43;;;;;;;;;;10579428;28;20031;-82
2024/01/13 11:53:39;;;;;;;7.30;5.60;;;;;;;;;;10568563;28;20491;-82
2024/01/13 11:58:42;;;;;;;9.85;8.85;;;;;;;;;;10575254;28;20028;-81
2024/01/13 12:03:43;;;;;;;7.15;5.60;;;;;;;;;;10578383;28;20024;-84
2024/01/13 12:08:44;;;;;;;;;;;;;;;;;;10577674;28;20020;-81
2024/01/13 12:13:46;;;;;;;10.32;9.02;;;;;;;;;;10575663;28;19911;-81
2024/01/13 12:18:47;;;;;;;9.10;7.82;;;;;;;;;;10575748;28;20023;-81
2024/01/13 12:23:48;;;;;;;7.97;6.97;;;;;;;;;;10576395;28;20452;-82
2024/01/13 12:29:16;;;;;;;9.75;8.57;;;;;;;;;;10577655;28;20020;-81
2024/01/13 12:34:25;;;;;;;8.27;7.38;;;;;;;;;;10586867;28;20059;-83
2024/01/13 12:39:47;;;;;;;7.95;6.95;;;;;;;;;;10601234;28;20054;-81
2024/01/13 12:44:49;;;;;;;6.22;4.82;;;;;;;;;;10527733;28;20032;-81
2024/01/13 12:49:55;;;;;;;10.48;8.43;;;;;;;;;;10574872;28;20059;-81
2024/01/13 12:54:56;;;;;;;7.03;4.85;;;;;;;;;;10596298;22;20581;-78
2024/01/13 12:59:58;;;;;;;10.27;7.05;;;;;;;;;;10592884;28;20052;-78
2024/01/13 13:04:59;;;;;;;9.20;8.18;;;;;;;;;;10591737;28;20040;-81
2024/01/13 13:10:00;;;;;;;8.90;7.97;;;;;;;;;;10580951;28;20113;-81
2024/01/13 13:15:01;;;;;;;7.18;6.47;;;;;;;;;;10578489;28;20126;-81
2024/01/13 13:20:02;;;;;;;10.93;9.38;;;;;;;;;;10600314;27;20040;-81
2024/01/13 13:25:03;;;;;;;;;;;;;;;;;;10600215;27;20050;-81
2024/01/13 13:30:05;;;;;;;10.57;9.20;;;;;;;;;;10575687;28;19965;-81
2024/01/13 13:35:06;;;;;;;7.78;6.43;;;;;;;;;;10594108;28;20088;-80
2024/01/13 13:40:09;;;;;;;7.00;6.30;;;;;;;;;;10572237;28;20036;-80
2024/01/13 13:45:10;;;;;;;7.68;6.30;;;;;;;;;;10573304;28;20047;-80
2024/01/13 13:50:11;;;;;;;8.20;7.28;;;;;;;;;;10570511;28;20042;-80
2024/01/13 13:55:12;;;;;;;;;;;;;;;;;;10593495;28;20057;-81
2024/01/13 14:00:13;;;;;;;7.22;5.43;;;;;;;;;;10576390;28;19929;-81
2024/01/13 14:05:14;;;;;;;;;;;;;;;;;;10576704;28;20023;-81
2024/01/13 14:10:15;;;;;;;12.65;10.32;;;;;;;;;;10574775;28;19904;-82
2024/01/13 14:15:17;;;;;;;9.02;8.10;;;;;;;;;;10580235;28;20051;-82
2024/01/13 14:20:18;;;;;;;9.13;7.88;;;;;;;;;;10577972;28;20054;-82
2024/01/13 14:25:19;;;;;;;8.15;7.28;;;;;;;;;;10584244;28;20031;-82
2024/01/13 14:30:20;;;;;;;7.15;6.18;;;;;;;;;;10567956;28;20073;-82
2024/01/13 14:35:21;;;;;;;;;;;;;;;;;;10586962;28;20070;-82
2024/01/13 14:40:22;;;;;;;7.40;6.07;;;;;;;;;;10573751;28;19914;-81
2024/01/13 14:45:24;;;;;;;9.60;8.27;;;;;;;;;;10592384;28;20024;-81
2024/01/13 14:50:25;;;;;;;5.28;4.65;;;;;;;;;;10572898;28;20475;-80
2024/01/13 14:55:26;;;;;;;9.02;7.50;;;;;;;;;;10573652;28;20126;-80
2024/01/13 15:00:27;;;;;;;11.25;9.25;;;;;;;;;;10573987;28;20075;-80
2024/01/13 15:05:30;;;;;;;7.65;6.47;;;;;;;;;;10581825;28;20027;-80
2024/01/13 15:10:31;;;;;;;7.28;6.53;;;;;;;;;;10581448;28;20027;-81
2024/01/13 15:15:32;;;;;;;16.65;14.77;;;;;;;;;;10581865;28;20080;-82
2024/01/13 15:20:33;;;;;;;;;;;;;;;;;;10583676;28;20034;-82
2024/01/13 15:25:34;;;;;;;7.80;6.50;;;;;;;;;;10582496;28;19910;-81
2024/01/13 15:30:35;;;;;;;10.98;9.77;;;;;;;;;;10582933;28;20065;-81
2024/01/13 15:35:36;;;;;;;12.48;11.13;;;;;;;;;;10580437;28;20425;-82
2024/01/13 15:40:37;;;;;;;13.63;10.75;;;;;;;;;;10581064;28;20039;-82
2024/01/13 15:45:38;;;;;;;13.27;11.88;;;;;;;;;;10581009;28;20138;-82
2024/01/13 15:50:43;;;;;;;12.65;10.25;;;;;;;;;;10581379;28;20118;-81
2024/01/13 15:55:44;;;;;;;15.32;12.00;;;;;;;;;;10579316;28;20133;-82
2024/01/13 16:00:46;;;;;;;5.90;5.13;;;;;;;;;;10581747;28;20032;-82
2024/01/13 16:05:47;;;;;;;14.93;12.00;;;;;;;;;;10590322;28;20058;-82
2024/01/13 16:10:48;;;;;;;;;;;;;;;;;;10592287;28;20036;-82
2024/01/13 16:15:50;;;;;;;6.75;5.85;;;;;;;;;;10611946;28;19942;-82
2024/01/13 16:20:51;;;;;;;13.40;11.00;;;;;;;;;;10583773;28;20067;-81
2024/01/13 16:25:52;;;;;;;13.95;11.35;;;;;;;;;;10579125;28;20027;-81
2024/01/13 16:30:53;;;;;;;16.13;13.48;;;;;;;;;;10596719;28;20368;-81
2024/01/13 16:35:54;;;;;;;8.63;6.80;;;;;;;;;;10579101;28;20077;-81
2024/01/13 16:40:55;;;;;;;8.43;7.22;;;;;;;;;;10579054;28;20034;-81
2024/01/13 16:45:57;;;;;;;11.20;8.80;;;;;;;;;;10579268;28;20034;-81
2024/01/13 16:50:58;;;;;;;9.85;7.38;;;;;;;;;;10578908;28;20020;-81
2024/01/13 16:55:59;;;;;;;11.18;8.88;;;;;;;;;;10576450;28;20039;-81
2024/01/13 17:01:01;;;;;;;14.27;10.13;;;;;;;;;;10595173;28;20091;-82
2024/01/13 17:06:02;;;;;;;10.25;7.68;;;;;;;;;;10577489;28;20020;-82
2024/01/13 17:11:03;;;;;;;;;;;;;;;;;;10595926;28;20016;-82
2024/01/13 17:16:04;;;;;;;10.27;7.57;;;;;;;;;;10583050;28;19904;-82
2024/01/13 17:21:05;;;;;;;;;;;;;;;;;;10581637;28;20038;-82
2024/01/13 17:26:06;;;;;;;16.30;12.70;;;;;;;;;;10575753;28;19910;-82
2024/01/13 17:31:07;;;;;;;24.90;18.65;;;;;;;;;;10583810;28;20034;-81
2024/01/13 17:36:08;;;;;;;27.52;20.30;;;;;;;;;;10598028;28;20007;-82
2024/01/13 17:41:09;;;;;;;11.45;8.52;;;;;;;;;;10618079;27;20047;-83
2024/01/13 17:46:10;;;;;;;22.40;16.23;;;;;;;;;;10608845;27;20073;-82
2024/01/13 17:51:11;;;;;;;;;;;;;;;;;;10574430;28;20057;-81
2024/01/13 17:56:12;;;;;;;16.88;13.35;;;;;;;;;;10575597;28;19918;-81
2024/01/13 18:01:13;;;;;;;;;;;;;;;;;;10574203;28;20050;-81
2024/01/13 18:06:15;;;;;;;8.18;7.18;;;;;;;;;;10592224;28;19980;-80
2024/01/13 18:11:16;;;;;;;10.48;7.10;;;;;;;;;;10576875;28;20583;-81
2024/01/13 18:16:17;;;;;;;18.08;13.15;;;;;;;;;;10594063;27;20115;-81
2024/01/13 18:21:18;;;;;;;16.58;12.73;;;;;;;;;;10572753;28;20122;-81
2024/01/13 18:26:19;;;;;;;24.80;18.73;;;;;;;;;;10574159;28;20023;-82
2024/01/13 18:31:22;;;;;;;13.52;11.15;;;;;;;;;;10581872;28;20028;-81
2024/01/13 18:36:28;;;;;;;12.15;9.40;;;;;;;;;;10600357;28;20020;-82
2024/01/13 18:41:29;;;;;;;22.45;16.42;;;;;;;;;;10571652;28;20027;-81
2024/01/13 18:46:30;;;;;;;17.42;12.57;;;;;;;;;;10570724;28;20041;-82
2024/01/13 18:51:32;;;;;;;13.10;10.23;;;;;;;;;;10571566;28;20413;-82
2024/01/13 18:56:33;;;;;;;23.40;17.85;;;;;;;;;;10589899;22;20127;-87
2024/01/13 19:01:34;;;;;;;15.05;11.57;;;;;;;;;;10599914;27;20057;-86
2024/01/13 19:06:36;;;;;;;;;;;;;;;;;;10588387;28;20024;-86
2024/01/13 19:11:37;;;;;;;22.48;17.30;;;;;;;;;;10569475;28;19904;-86
2024/01/13 19:16:43;;;;;;;;;;;;;;;;;;10569755;28;20031;-86
2024/01/13 19:21:45;;;;;;;16.90;13.10;;;;;;;;;;10569911;28;19921;-86
2024/01/13 19:26:47;;;;;;;11.18;8.32;;;;;;;;;;10570037;28;20043;-87
2024/01/13 19:31:48;;;;;;;17.30;13.60;;;;;;;;;;10568254;28;20036;-86
2024/01/13 19:36:50;;;;;;;14.10;11.30;;;;;;;;;;10565088;28;20122;-87
2024/01/13 19:41:53;;;;;;;;;;;;;;;;;;10566208;28;20122;-85
2024/01/13 19:46:55;;;;;;;12.77;10.18;;;;;;;;;;10585767;28;19904;-86
2024/01/13 19:51:57;;;;;;;20.33;16.30;;;;;;;;;;10574470;28;20053;-86
2024/01/13 19:56:59;;;;;;;19.33;14.60;;;;;;;;;;10575200;28;20498;-86
2024/01/13 20:02:01;;;;;;;19.42;15.00;;;;;;;;;;10578521;28;20122;-86
2024/01/13 20:07:03;;;;;;;16.08;12.48;;;;;;;;;;10579228;28;20035;-86
